sensor_id;sensor_type;location;lat;lon;timestamp;pressure;altitude;pressure_sealevel;temperature;humidity
62926;BME280;55732;52.248;-0.844;2023-04-09T00:01:05;101649.88;;;7.30;76.46
62926;BME280;55732;52.248;-0.844;2023-04-09T00:03:31;101650.20;;;7.29;76.43
62926;BME280;55732;52.248;-0.844;2023-04-09T00:05:57;101649.13;;;7.28;76.55
62926;BME280;55732;52.248;-0.844;2023-04-09T00:08:22;101649.98;;;7.28;76.47
62926;BME280;55732;52.248;-0.844;2023-04-09T00:10:52;101647.48;;;7.26;76.61
62926;BME280;55732;52.248;-0.844;2023-04-09T00:13:19;101647.45;;;7.25;76.80
62926;BME280;55732;52.248;-0.844;2023-04-09T00:15:45;101642.52;;;7.24;76.83
62926;BME280;55732;52.248;-0.844;2023-04-09T00:18:11;101644.30;;;7.25;77.02
62926;BME280;55732;52.248;-0.844;2023-04-09T00:20:37;101639.75;;;7.25;77.09
62926;BME280;55732;52.248;-0.844;2023-04-09T00:23:02;101638.33;;;7.24;77.17
62926;BME280;55732;52.248;-0.844;2023-04-09T00:25:28;101639.32;;;7.22;77.32
62926;BME280;55732;52.248;-0.844;2023-04-09T00:27:54;101636.13;;;7.21;77.40
62926;BME280;55732;52.248;-0.844;2023-04-09T00:30:20;101633.09;;;7.19;77.46
62926;BME280;55732;52.248;-0.844;2023-04-09T00:32:45;101633.20;;;7.17;77.57
62926;BME280;55732;52.248;-0.844;2023-04-09T00:35:11;101629.11;;;7.15;77.89
62926;BME280;55732;52.248;-0.844;2023-04-09T00:37:37;101628.99;;;7.11;78.10
62926;BME280;55732;52.248;-0.844;2023-04-09T00:40:03;101629.09;;;7.08;78.18
62926;BME280;55732;52.248;-0.844;2023-04-09T00:42:32;101625.36;;;7.06;78.44
62926;BME280;55732;52.248;-0.844;2023-04-09T00:44:58;101620.52;;;7.03;78.80
62926;BME280;55732;52.248;-0.844;2023-04-09T00:47:25;101620.75;;;6.99;79.17
62926;BME280;55732;52.248;-0.844;2023-04-09T00:49:52;101617.66;;;6.95;79.60
62926;BME280;55732;52.248;-0.844;2023-04-09T00:52:17;101613.00;;;6.92;79.99
62926;BME280;55732;52.248;-0.844;2023-04-09T00:54:43;101613.05;;;6.87;80.27
62926;BME280;55732;52.248;-0.844;2023-04-09T00:57:08;101611.20;;;6.84;80.41
62926;BME280;55732;52.248;-0.844;2023-04-09T00:59:35;101607.23;;;6.80;80.72
62926;BME280;55732;52.248;-0.844;2023-04-09T01:02:01;101600.86;;;6.78;80.91
62926;BME280;55732;52.248;-0.844;2023-04-09T01:04:26;101594.98;;;6.75;81.14
62926;BME280;55732;52.248;-0.844;2023-04-09T01:09:55;101586.29;;;6.70;81.81
62926;BME280;55732;52.248;-0.844;2023-04-09T01:15:16;101583.77;;;6.62;82.68
62926;BME280;55732;52.248;-0.844;2023-04-09T01:17:51;101588.61;;;6.55;83.74
62926;BME280;55732;52.248;-0.844;2023-04-09T01:20:26;101585.06;;;6.48;84.66
62926;BME280;55732;52.248;-0.844;2023-04-09T01:25:43;101578.57;;;6.36;86.10
62926;BME280;55732;52.248;-0.844;2023-04-09T01:30:57;101576.49;;;6.26;86.08
62926;BME280;55732;52.248;-0.844;2023-04-09T01:33:25;101575.58;;;6.24;86.25
62926;BME280;55732;52.248;-0.844;2023-04-09T01:35:52;101575.41;;;6.25;86.17
62926;BME280;55732;52.248;-0.844;2023-04-09T01:38:20;101573.16;;;6.25;86.33
62926;BME280;55732;52.248;-0.844;2023-04-09T01:40:48;101570.30;;;6.24;87.68
62926;BME280;55732;52.248;-0.844;2023-04-09T01:43:16;101572.00;;;6.22;87.23
62926;BME280;55732;52.248;-0.844;2023-04-09T01:45:43;101572.86;;;6.22;87.66
62926;BME280;55732;52.248;-0.844;2023-04-09T01:48:10;101575.09;;;6.21;88.20
62926;BME280;55732;52.248;-0.844;2023-04-09T01:50:36;101573.98;;;6.19;88.20
62926;BME280;55732;52.248;-0.844;2023-04-09T01:53:02;101571.20;;;6.19;87.92
62926;BME280;55732;52.248;-0.844;2023-04-09T01:55:28;101574.74;;;6.21;87.81
62926;BME280;55732;52.248;-0.844;2023-04-09T01:57:53;101570.44;;;6.23;87.80
62926;BME280;55732;52.248;-0.844;2023-04-09T02:00:19;101569.30;;;6.25;87.57
62926;BME280;55732;52.248;-0.844;2023-04-09T02:02:56;101567.73;;;6.27;87.62
62926;BME280;55732;52.248;-0.844;2023-04-09T02:05:24;101568.52;;;6.28;87.44
62926;BME280;55732;52.248;-0.844;2023-04-09T02:07:55;101567.53;;;6.30;87.17
62926;BME280;55732;52.248;-0.844;2023-04-09T02:10:23;101569.33;;;6.31;87.24
62926;BME280;55732;52.248;-0.844;2023-04-09T02:12:51;101566.74;;;6.33;87.60
62926;BME280;55732;52.248;-0.844;2023-04-09T02:15:18;101565.59;;;6.35;87.06
62926;BME280;55732;52.248;-0.844;2023-04-09T02:17:45;101565.13;;;6.37;87.11
62926;BME280;55732;52.248;-0.844;2023-04-09T02:20:15;101562.25;;;6.40;87.13
62926;BME280;55732;52.248;-0.844;2023-04-09T02:22:41;101558.77;;;6.41;87.27
62926;BME280;55732;52.248;-0.844;2023-04-09T02:25:07;101557.40;;;6.42;86.98
62926;BME280;55732;52.248;-0.844;2023-04-09T02:27:32;101559.21;;;6.43;86.85
62926;BME280;55732;52.248;-0.844;2023-04-09T02:29:57;101561.70;;;6.44;86.72
62926;BME280;55732;52.248;-0.844;2023-04-09T02:32:23;101555.48;;;6.47;86.48
62926;BME280;55732;52.248;-0.844;2023-04-09T02:34:48;101556.95;;;6.49;86.62
62926;BME280;55732;52.248;-0.844;2023-04-09T02:37:13;101555.07;;;6.51;87.25
62926;BME280;55732;52.248;-0.844;2023-04-09T02:39:39;101560.67;;;6.51;86.84
62926;BME280;55732;52.248;-0.844;2023-04-09T02:42:04;101559.88;;;6.54;86.53
62926;BME280;55732;52.248;-0.844;2023-04-09T02:44:32;101558.73;;;6.56;86.24
62926;BME280;55732;52.248;-0.844;2023-04-09T02:46:57;101555.47;;;6.58;86.25
62926;BME280;55732;52.248;-0.844;2023-04-09T02:49:23;101555.23;;;6.63;86.06
62926;BME280;55732;52.248;-0.844;2023-04-09T02:51:48;101557.25;;;6.65;85.77
62926;BME280;55732;52.248;-0.844;2023-04-09T02:54:13;101554.33;;;6.67;85.75
62926;BME280;55732;52.248;-0.844;2023-04-09T02:56:39;101553.91;;;6.70;85.74
62926;BME280;55732;52.248;-0.844;2023-04-09T02:59:05;101547.86;;;6.73;85.59
62926;BME280;55732;52.248;-0.844;2023-04-09T03:01:30;101550.27;;;6.78;85.42
62926;BME280;55732;52.248;-0.844;2023-04-09T03:03:55;101547.77;;;6.81;85.30
62926;BME280;55732;52.248;-0.844;2023-04-09T03:06:21;101547.14;;;6.84;85.18
62926;BME280;55732;52.248;-0.844;2023-04-09T03:08:46;101548.61;;;6.87;85.03
62926;BME280;55732;52.248;-0.844;2023-04-09T03:11:11;101549.75;;;6.90;84.91
62926;BME280;55732;52.248;-0.844;2023-04-09T03:13:37;101547.22;;;6.92;84.79
62926;BME280;55732;52.248;-0.844;2023-04-09T03:16:02;101542.82;;;6.92;84.67
62926;BME280;55732;52.248;-0.844;2023-04-09T03:18:28;101540.70;;;6.91;84.59
62926;BME280;55732;52.248;-0.844;2023-04-09T03:20:53;101538.59;;;6.91;84.55
62926;BME280;55732;52.248;-0.844;2023-04-09T03:23:18;101536.98;;;6.90;84.63
62926;BME280;55732;52.248;-0.844;2023-04-09T03:25:44;101530.14;;;6.89;84.51
62926;BME280;55732;52.248;-0.844;2023-04-09T03:28:09;101534.11;;;6.88;84.37
62926;BME280;55732;52.248;-0.844;2023-04-09T03:30:35;101534.23;;;6.86;84.37
62926;BME280;55732;52.248;-0.844;2023-04-09T03:33:00;101536.13;;;6.85;84.58
62926;BME280;55732;52.248;-0.844;2023-04-09T03:35:25;101540.66;;;6.83;84.39
62926;BME280;55732;52.248;-0.844;2023-04-09T03:37:51;101540.09;;;6.82;84.45
62926;BME280;55732;52.248;-0.844;2023-04-09T03:40:16;101539.33;;;6.80;84.60
62926;BME280;55732;52.248;-0.844;2023-04-09T03:42:42;101536.36;;;6.80;84.38
62926;BME280;55732;52.248;-0.844;2023-04-09T03:45:08;101533.88;;;6.79;84.76
62926;BME280;55732;52.248;-0.844;2023-04-09T03:47:34;101535.78;;;6.79;84.64
62926;BME280;55732;52.248;-0.844;2023-04-09T03:49:59;101533.33;;;6.79;84.66
62926;BME280;55732;52.248;-0.844;2023-04-09T03:52:25;101530.67;;;6.78;84.49
62926;BME280;55732;52.248;-0.844;2023-04-09T03:54:50;101531.91;;;6.78;84.61
62926;BME280;55732;52.248;-0.844;2023-04-09T03:57:15;101535.24;;;6.78;84.59
62926;BME280;55732;52.248;-0.844;2023-04-09T03:59:41;101531.41;;;6.79;84.64
62926;BME280;55732;52.248;-0.844;2023-04-09T04:02:06;101534.10;;;6.81;84.39
62926;BME280;55732;52.248;-0.844;2023-04-09T04:04:32;101529.63;;;6.83;84.32
62926;BME280;55732;52.248;-0.844;2023-04-09T04:06:57;101531.95;;;6.85;84.29
62926;BME280;55732;52.248;-0.844;2023-04-09T04:09:23;101529.55;;;6.87;83.96
62926;BME280;55732;52.248;-0.844;2023-04-09T04:11:48;101530.46;;;6.89;84.05
62926;BME280;55732;52.248;-0.844;2023-04-09T04:14:14;101528.23;;;6.91;84.01
62926;BME280;55732;52.248;-0.844;2023-04-09T04:16:40;101526.19;;;6.92;84.01
62926;BME280;55732;52.248;-0.844;2023-04-09T04:19:05;101521.35;;;6.94;84.07
62926;BME280;55732;52.248;-0.844;2023-04-09T04:21:31;101520.36;;;6.97;84.00
62926;BME280;55732;52.248;-0.844;2023-04-09T04:23:56;101518.54;;;7.00;83.92
62926;BME280;55732;52.248;-0.844;2023-04-09T04:26:22;101521.38;;;7.01;83.72
62926;BME280;55732;52.248;-0.844;2023-04-09T04:28:47;101514.04;;;7.02;83.70
62926;BME280;55732;52.248;-0.844;2023-04-09T04:31:12;101507.23;;;7.03;83.71
62926;BME280;55732;52.248;-0.844;2023-04-09T04:33:39;101507.59;;;7.03;83.87
62926;BME280;55732;52.248;-0.844;2023-04-09T04:36:10;101508.61;;;7.02;83.78
62926;BME280;55732;52.248;-0.844;2023-04-09T04:38:36;101506.00;;;7.02;83.84
62926;BME280;55732;52.248;-0.844;2023-04-09T04:41:02;101506.38;;;7.03;83.94
62926;BME280;55732;52.248;-0.844;2023-04-09T04:43:28;101503.01;;;7.02;83.95
62926;BME280;55732;52.248;-0.844;2023-04-09T04:45:54;101496.85;;;7.01;83.91
62926;BME280;55732;52.248;-0.844;2023-04-09T04:48:20;101490.89;;;7.01;83.97
62926;BME280;55732;52.248;-0.844;2023-04-09T04:50:45;101485.36;;;6.97;84.17
62926;BME280;55732;52.248;-0.844;2023-04-09T04:53:11;101483.52;;;6.94;84.43
62926;BME280;55732;52.248;-0.844;2023-04-09T04:55:37;101473.23;;;6.89;84.46
62926;BME280;55732;52.248;-0.844;2023-04-09T04:58:05;101470.81;;;6.84;84.67
62926;BME280;55732;52.248;-0.844;2023-04-09T05:00:31;101469.06;;;6.78;84.96
62926;BME280;55732;52.248;-0.844;2023-04-09T05:02:56;101472.09;;;6.74;85.02
62926;BME280;55732;52.248;-0.844;2023-04-09T05:05:22;101475.48;;;6.70;85.05
62926;BME280;55732;52.248;-0.844;2023-04-09T05:07:47;101481.34;;;6.67;85.13
62926;BME280;55732;52.248;-0.844;2023-04-09T05:10:13;101482.86;;;6.65;85.15
62926;BME280;55732;52.248;-0.844;2023-04-09T05:12:38;101479.02;;;6.65;85.22
62926;BME280;55732;52.248;-0.844;2023-04-09T05:15:04;101477.09;;;6.65;85.26
62926;BME280;55732;52.248;-0.844;2023-04-09T05:17:29;101472.39;;;6.66;85.30
62926;BME280;55732;52.248;-0.844;2023-04-09T05:19:55;101468.53;;;6.65;85.48
62926;BME280;55732;52.248;-0.844;2023-04-09T05:22:22;101467.27;;;6.65;85.72
62926;BME280;55732;52.248;-0.844;2023-04-09T05:24:47;101467.44;;;6.64;85.77
62926;BME280;55732;52.248;-0.844;2023-04-09T05:27:13;101465.52;;;6.64;85.86
62926;BME280;55732;52.248;-0.844;2023-04-09T05:29:38;101458.52;;;6.64;86.27
62926;BME280;55732;52.248;-0.844;2023-04-09T05:32:04;101453.06;;;6.64;86.20
62926;BME280;55732;52.248;-0.844;2023-04-09T05:34:29;101452.89;;;6.64;86.29
62926;BME280;55732;52.248;-0.844;2023-04-09T05:36:55;101456.80;;;6.66;86.07
62926;BME280;55732;52.248;-0.844;2023-04-09T05:39:20;101457.54;;;6.66;86.39
62926;BME280;55732;52.248;-0.844;2023-04-09T05:41:45;101457.03;;;6.67;86.35
62926;BME280;55732;52.248;-0.844;2023-04-09T05:44:11;101465.54;;;6.70;86.22
62926;BME280;55732;52.248;-0.844;2023-04-09T05:46:37;101458.61;;;6.74;86.10
62926;BME280;55732;52.248;-0.844;2023-04-09T05:49:02;101459.95;;;6.77;86.01
62926;BME280;55732;52.248;-0.844;2023-04-09T05:51:28;101459.98;;;6.78;86.56
62926;BME280;55732;52.248;-0.844;2023-04-09T05:53:53;101466.23;;;6.76;86.50
62926;BME280;55732;52.248;-0.844;2023-04-09T05:56:19;101467.24;;;6.75;86.28
62926;BME280;55732;52.248;-0.844;2023-04-09T05:58:47;101467.43;;;6.76;86.08
62926;BME280;55732;52.248;-0.844;2023-04-09T06:01:13;101466.59;;;6.77;86.07
62926;BME280;55732;52.248;-0.844;2023-04-09T06:03:38;101461.58;;;6.79;86.24
62926;BME280;55732;52.248;-0.844;2023-04-09T06:06:04;101462.08;;;6.78;86.80
62926;BME280;55732;52.248;-0.844;2023-04-09T06:08:29;101460.23;;;6.75;87.02
62926;BME280;55732;52.248;-0.844;2023-04-09T06:10:55;101456.51;;;6.73;86.97
62926;BME280;55732;52.248;-0.844;2023-04-09T06:13:20;101457.05;;;6.74;86.84
62926;BME280;55732;52.248;-0.844;2023-04-09T06:15:46;101458.70;;;6.76;86.59
62926;BME280;55732;52.248;-0.844;2023-04-09T06:18:12;101460.70;;;6.79;86.71
62926;BME280;55732;52.248;-0.844;2023-04-09T06:20:37;101455.88;;;6.81;86.96
62926;BME280;55732;52.248;-0.844;2023-04-09T06:23:03;101452.41;;;6.82;86.75
62926;BME280;55732;52.248;-0.844;2023-04-09T06:25:29;101451.21;;;6.83;87.26
62926;BME280;55732;52.248;-0.844;2023-04-09T06:27:55;101443.83;;;6.82;87.27
62926;BME280;55732;52.248;-0.844;2023-04-09T06:30:20;101443.51;;;6.83;86.97
62926;BME280;55732;52.248;-0.844;2023-04-09T06:32:47;101437.44;;;6.86;86.66
62926;BME280;55732;52.248;-0.844;2023-04-09T06:35:14;101436.36;;;6.92;86.50
62926;BME280;55732;52.248;-0.844;2023-04-09T06:37:39;101432.33;;;6.98;86.30
62926;BME280;55732;52.248;-0.844;2023-04-09T06:40:06;101423.73;;;7.03;86.29
62926;BME280;55732;52.248;-0.844;2023-04-09T06:42:32;101426.36;;;7.10;86.04
62926;BME280;55732;52.248;-0.844;2023-04-09T06:44:57;101423.44;;;7.19;85.65
62926;BME280;55732;52.248;-0.844;2023-04-09T06:47:23;101423.80;;;7.26;85.59
62926;BME280;55732;52.248;-0.844;2023-04-09T06:49:48;101424.17;;;7.48;85.10
62926;BME280;55732;52.248;-0.844;2023-04-09T06:52:13;101415.79;;;8.09;84.34
62926;BME280;55732;52.248;-0.844;2023-04-09T06:54:39;101412.96;;;9.21;81.73
62926;BME280;55732;52.248;-0.844;2023-04-09T06:57:05;101416.77;;;10.43;78.01
62926;BME280;55732;52.248;-0.844;2023-04-09T06:59:31;101414.49;;;11.23;75.50
62926;BME280;55732;52.248;-0.844;2023-04-09T07:01:58;101414.90;;;11.28;74.26
62926;BME280;55732;52.248;-0.844;2023-04-09T07:04:24;101410.46;;;11.45;73.42
62926;BME280;55732;52.248;-0.844;2023-04-09T07:06:50;101409.29;;;11.97;72.73
62926;BME280;55732;52.248;-0.844;2023-04-09T07:09:17;101406.77;;;12.57;70.65
62926;BME280;55732;52.248;-0.844;2023-04-09T07:11:42;101411.70;;;13.06;68.44
62926;BME280;55732;52.248;-0.844;2023-04-09T07:14:08;101411.39;;;13.26;66.64
62926;BME280;55732;52.248;-0.844;2023-04-09T07:16:33;101415.64;;;13.58;65.48
62926;BME280;55732;52.248;-0.844;2023-04-09T07:18:59;101428.88;;;13.26;64.88
62926;BME280;55732;52.248;-0.844;2023-04-09T07:21:24;101423.39;;;13.18;65.81
62926;BME280;55732;52.248;-0.844;2023-04-09T07:23:50;101417.40;;;14.47;63.22
62926;BME280;55732;52.248;-0.844;2023-04-09T07:26:16;101418.02;;;15.35;60.42
62926;BME280;55732;52.248;-0.844;2023-04-09T07:28:41;101417.05;;;15.71;57.86
62926;BME280;55732;52.248;-0.844;2023-04-09T07:31:07;101420.42;;;15.45;59.37
62926;BME280;55732;52.248;-0.844;2023-04-09T07:33:32;101420.66;;;15.12;58.52
62926;BME280;55732;52.248;-0.844;2023-04-09T07:35:58;101419.33;;;14.67;58.55
62926;BME280;55732;52.248;-0.844;2023-04-09T07:38:23;101415.65;;;14.50;59.38
62926;BME280;55732;52.248;-0.844;2023-04-09T07:40:49;101420.59;;;14.57;59.66
62926;BME280;55732;52.248;-0.844;2023-04-09T07:43:14;101422.41;;;14.42;59.57
62926;BME280;55732;52.248;-0.844;2023-04-09T07:45:41;101419.77;;;14.34;59.45
62926;BME280;55732;52.248;-0.844;2023-04-09T07:48:06;101422.77;;;14.38;59.57
62926;BME280;55732;52.248;-0.844;2023-04-09T07:50:33;101418.19;;;14.81;58.54
62926;BME280;55732;52.248;-0.844;2023-04-09T07:52:58;101418.44;;;14.97;58.44
62926;BME280;55732;52.248;-0.844;2023-04-09T07:55:24;101413.16;;;14.49;59.31
62926;BME280;55732;52.248;-0.844;2023-04-09T07:57:50;101413.85;;;13.80;60.13
62926;BME280;55732;52.248;-0.844;2023-04-09T08:00:16;101415.77;;;13.09;61.03
62926;BME280;55732;52.248;-0.844;2023-04-09T08:02:42;101420.50;;;12.47;62.23
62926;BME280;55732;52.248;-0.844;2023-04-09T08:05:08;101429.39;;;11.94;63.37
62926;BME280;55732;52.248;-0.844;2023-04-09T08:07:34;101425.19;;;11.55;64.55
62926;BME280;55732;52.248;-0.844;2023-04-09T08:09:59;101422.11;;;11.25;65.37
62926;BME280;55732;52.248;-0.844;2023-04-09T08:12:25;101423.77;;;10.99;65.99
62926;BME280;55732;52.248;-0.844;2023-04-09T08:14:50;101423.58;;;10.65;67.02
62926;BME280;55732;52.248;-0.844;2023-04-09T08:17:16;101426.24;;;10.39;67.90
62926;BME280;55732;52.248;-0.844;2023-04-09T08:19:42;101425.54;;;10.25;68.67
62926;BME280;55732;52.248;-0.844;2023-04-09T08:22:07;101421.45;;;10.22;68.62
62926;BME280;55732;52.248;-0.844;2023-04-09T08:24:32;101420.39;;;10.36;68.44
62926;BME280;55732;52.248;-0.844;2023-04-09T08:26:58;101421.39;;;10.60;68.26
62926;BME280;55732;52.248;-0.844;2023-04-09T08:29:25;101416.05;;;10.84;67.78
62926;BME280;55732;52.248;-0.844;2023-04-09T08:31:51;101409.08;;;11.07;67.68
62926;BME280;55732;52.248;-0.844;2023-04-09T08:34:16;101409.94;;;11.25;67.04
62926;BME280;55732;52.248;-0.844;2023-04-09T08:36:45;101410.67;;;11.48;66.64
62926;BME280;55732;52.248;-0.844;2023-04-09T08:39:11;101414.14;;;11.63;66.44
62926;BME280;55732;52.248;-0.844;2023-04-09T08:41:41;101411.08;;;11.55;66.74
62926;BME280;55732;52.248;-0.844;2023-04-09T08:44:08;101411.73;;;11.46;66.71
62926;BME280;55732;52.248;-0.844;2023-04-09T08:46:35;101410.55;;;12.05;66.10
62926;BME280;55732;52.248;-0.844;2023-04-09T08:49:01;101408.02;;;13.24;63.53
62926;BME280;55732;52.248;-0.844;2023-04-09T08:51:26;101410.70;;;13.51;62.42
62926;BME280;55732;52.248;-0.844;2023-04-09T08:54:01;101413.14;;;13.84;61.90
62926;BME280;55732;52.248;-0.844;2023-04-09T08:56:27;101417.92;;;13.85;61.72
62926;BME280;55732;52.248;-0.844;2023-04-09T08:58:54;101418.58;;;14.13;61.70
62926;BME280;55732;52.248;-0.844;2023-04-09T09:01:30;101420.64;;;14.46;61.02
62926;BME280;55732;52.248;-0.844;2023-04-09T09:03:59;101418.48;;;14.55;60.39
62926;BME280;55732;52.248;-0.844;2023-04-09T09:06:27;101427.02;;;14.38;60.72
62926;BME280;55732;52.248;-0.844;2023-04-09T09:09:14;101434.67;;;14.23;61.01
62926;BME280;55732;52.248;-0.844;2023-04-09T09:11:42;101430.25;;;14.22;60.11
62926;BME280;55732;52.248;-0.844;2023-04-09T09:14:16;101424.41;;;14.19;59.81
62926;BME280;55732;52.248;-0.844;2023-04-09T09:22:00;101404.95;;;14.70;58.94
62926;BME280;55732;52.248;-0.844;2023-04-09T09:24:26;101409.61;;;15.42;57.93
62926;BME280;55732;52.248;-0.844;2023-04-09T09:26:52;101404.48;;;15.39;57.49
62926;BME280;55732;52.248;-0.844;2023-04-09T09:29:19;101400.38;;;15.82;56.00
62926;BME280;55732;52.248;-0.844;2023-04-09T09:31:51;101389.73;;;16.91;54.03
62926;BME280;55732;52.248;-0.844;2023-04-09T09:34:18;101391.69;;;16.47;54.22
62926;BME280;55732;52.248;-0.844;2023-04-09T09:36:44;101390.13;;;16.58;53.97
62926;BME280;55732;52.248;-0.844;2023-04-09T09:39:11;101387.81;;;17.00;52.62
62926;BME280;55732;52.248;-0.844;2023-04-09T09:41:40;101387.75;;;17.14;52.76
62926;BME280;55732;52.248;-0.844;2023-04-09T09:44:07;101379.65;;;17.73;52.05
62926;BME280;55732;52.248;-0.844;2023-04-09T09:46:35;101374.95;;;18.58;50.54
62926;BME280;55732;52.248;-0.844;2023-04-09T09:49:02;101367.67;;;19.13;49.23
62926;BME280;55732;52.248;-0.844;2023-04-09T09:51:30;101360.79;;;19.59;47.49
62926;BME280;55732;52.248;-0.844;2023-04-09T09:53:57;101350.14;;;20.82;45.41
62926;BME280;55732;52.248;-0.844;2023-04-09T09:56:26;101353.23;;;21.94;43.25
62926;BME280;55732;52.248;-0.844;2023-04-09T09:59:12;101348.05;;;22.13;42.27
62926;BME280;55732;52.248;-0.844;2023-04-09T10:01:41;101346.60;;;21.94;42.20
62926;BME280;55732;52.248;-0.844;2023-04-09T10:04:09;101345.41;;;21.88;41.63
62926;BME280;55732;52.248;-0.844;2023-04-09T10:06:39;101342.93;;;21.91;40.78
62926;BME280;55732;52.248;-0.844;2023-04-09T10:09:07;101337.38;;;22.99;40.15
62926;BME280;55732;52.248;-0.844;2023-04-09T10:11:35;101335.27;;;22.98;39.22
62926;BME280;55732;52.248;-0.844;2023-04-09T10:14:01;101329.89;;;23.03;39.12
62926;BME280;55732;52.248;-0.844;2023-04-09T10:16:27;101335.59;;;23.76;38.02
62926;BME280;55732;52.248;-0.844;2023-04-09T10:18:56;101331.96;;;24.17;36.68
62926;BME280;55732;52.248;-0.844;2023-04-09T10:21:33;101322.61;;;23.89;37.16
62926;BME280;55732;52.248;-0.844;2023-04-09T10:24:01;101322.27;;;23.76;36.66
62926;BME280;55732;52.248;-0.844;2023-04-09T10:26:32;101318.75;;;24.38;35.81
62926;BME280;55732;52.248;-0.844;2023-04-09T10:29:26;101317.09;;;24.62;35.84
62926;BME280;55732;52.248;-0.844;2023-04-09T10:32:07;101318.13;;;24.40;36.80
62926;BME280;55732;52.248;-0.844;2023-04-09T10:34:41;101315.54;;;23.94;36.89
62926;BME280;55732;52.248;-0.844;2023-04-09T10:37:09;101313.23;;;22.78;37.84
62926;BME280;55732;52.248;-0.844;2023-04-09T10:39:40;101307.64;;;22.38;39.09
62926;BME280;55732;52.248;-0.844;2023-04-09T10:42:12;101304.86;;;22.55;38.81
62926;BME280;55732;52.248;-0.844;2023-04-09T10:44:39;101298.04;;;22.32;38.87
62926;BME280;55732;52.248;-0.844;2023-04-09T10:47:08;101299.07;;;21.79;39.30
62926;BME280;55732;52.248;-0.844;2023-04-09T10:49:41;101301.55;;;20.90;39.87
62926;BME280;55732;52.248;-0.844;2023-04-09T10:52:10;101296.13;;;20.11;41.68
62926;BME280;55732;52.248;-0.844;2023-04-09T10:54:44;101295.83;;;19.64;42.44
62926;BME280;55732;52.248;-0.844;2023-04-09T10:57:14;101292.14;;;19.14;43.44
62926;BME280;55732;52.248;-0.844;2023-04-09T11:07:34;101273.42;;;18.45;44.56
62926;BME280;55732;52.248;-0.844;2023-04-09T11:10:03;101264.64;;;18.07;45.27
62926;BME280;55732;52.248;-0.844;2023-04-09T11:12:29;101260.26;;;17.86;45.56
62926;BME280;55732;52.248;-0.844;2023-04-09T11:14:54;101252.45;;;17.76;46.44
62926;BME280;55732;52.248;-0.844;2023-04-09T11:17:20;101252.96;;;17.86;46.43
62926;BME280;55732;52.248;-0.844;2023-04-09T11:19:45;101246.36;;;17.86;45.80
62926;BME280;55732;52.248;-0.844;2023-04-09T11:22:11;101240.85;;;17.85;46.19
62926;BME280;55732;52.248;-0.844;2023-04-09T11:24:44;101236.02;;;17.86;45.87
62926;BME280;55732;52.248;-0.844;2023-04-09T11:27:11;101233.64;;;17.89;46.13
62926;BME280;55732;52.248;-0.844;2023-04-09T11:29:38;101229.45;;;17.77;46.32
62926;BME280;55732;52.248;-0.844;2023-04-09T11:32:03;101226.79;;;17.67;45.88
62926;BME280;55732;52.248;-0.844;2023-04-09T11:34:32;101219.72;;;17.55;46.33
62926;BME280;55732;52.248;-0.844;2023-04-09T11:36:57;101219.74;;;17.61;46.33
62926;BME280;55732;52.248;-0.844;2023-04-09T11:39:24;101221.90;;;17.53;46.01
62926;BME280;55732;52.248;-0.844;2023-04-09T11:41:50;101213.17;;;17.34;46.25
62926;BME280;55732;52.248;-0.844;2023-04-09T11:44:16;101209.45;;;17.24;46.70
62926;BME280;55732;52.248;-0.844;2023-04-09T11:46:42;101205.58;;;17.21;46.96
62926;BME280;55732;52.248;-0.844;2023-04-09T11:49:08;101204.98;;;17.05;47.38
62926;BME280;55732;52.248;-0.844;2023-04-09T11:51:33;101200.66;;;17.08;47.40
62926;BME280;55732;52.248;-0.844;2023-04-09T11:54:07;101196.58;;;17.27;47.28
62926;BME280;55732;52.248;-0.844;2023-04-09T11:56:34;101189.02;;;17.40;46.97
62926;BME280;55732;52.248;-0.844;2023-04-09T11:59:01;101187.36;;;17.43;46.92
62926;BME280;55732;52.248;-0.844;2023-04-09T12:01:31;101185.52;;;17.55;46.82
62926;BME280;55732;52.248;-0.844;2023-04-09T12:03:57;101183.44;;;17.71;46.66
62926;BME280;55732;52.248;-0.844;2023-04-09T12:06:23;101180.94;;;17.88;46.25
62926;BME280;55732;52.248;-0.844;2023-04-09T12:08:56;101178.42;;;17.89;46.16
62926;BME280;55732;52.248;-0.844;2023-04-09T12:11:29;101172.02;;;17.88;45.78
62926;BME280;55732;52.248;-0.844;2023-04-09T12:14:01;101173.29;;;17.88;45.45
62926;BME280;55732;52.248;-0.844;2023-04-09T12:16:32;101171.54;;;17.94;45.26
62926;BME280;55732;52.248;-0.844;2023-04-09T12:19:11;101173.67;;;17.94;45.07
62926;BME280;55732;52.248;-0.844;2023-04-09T12:21:51;101168.49;;;17.79;45.53
62926;BME280;55732;52.248;-0.844;2023-04-09T12:24:23;101167.42;;;17.70;44.98
62926;BME280;55732;52.248;-0.844;2023-04-09T12:26:50;101161.95;;;17.41;45.34
62926;BME280;55732;52.248;-0.844;2023-04-09T12:29:18;101159.92;;;17.35;45.75
62926;BME280;55732;52.248;-0.844;2023-04-09T12:31:45;101156.61;;;17.49;45.94
62926;BME280;55732;52.248;-0.844;2023-04-09T12:34:10;101156.42;;;17.77;46.24
62926;BME280;55732;52.248;-0.844;2023-04-09T12:36:38;101160.10;;;17.96;45.76
62926;BME280;55732;52.248;-0.844;2023-04-09T12:39:03;101156.05;;;18.09;45.17
62926;BME280;55732;52.248;-0.844;2023-04-09T12:41:30;101151.69;;;18.28;45.02
62926;BME280;55732;52.248;-0.844;2023-04-09T12:43:55;101145.08;;;18.51;44.56
62926;BME280;55732;52.248;-0.844;2023-04-09T12:46:21;101139.32;;;18.61;44.12
62926;BME280;55732;52.248;-0.844;2023-04-09T12:48:46;101134.77;;;18.57;43.85
62926;BME280;55732;52.248;-0.844;2023-04-09T12:51:12;101136.95;;;18.54;44.39
62926;BME280;55732;52.248;-0.844;2023-04-09T12:53:38;101137.34;;;18.53;43.83
62926;BME280;55732;52.248;-0.844;2023-04-09T12:56:04;101134.95;;;18.41;43.91
62926;BME280;55732;52.248;-0.844;2023-04-09T12:58:30;101136.41;;;18.26;44.13
62926;BME280;55732;52.248;-0.844;2023-04-09T13:00:56;101130.16;;;18.26;44.39
62926;BME280;55732;52.248;-0.844;2023-04-09T13:03:25;101133.50;;;18.28;44.26
62926;BME280;55732;52.248;-0.844;2023-04-09T13:05:51;101130.96;;;18.22;44.23
62926;BME280;55732;52.248;-0.844;2023-04-09T13:08:17;101127.88;;;18.32;44.33